Time;durP1;ratioP1;P1;durP2;ratioP2;P2;SDS_P1;SDS_P2;PMS_P1;PMS_P2;Temp;Humidity;BMP_temperature;BMP_pressure;BME280_temperature;BME280_humidity;BME280_pressure;Samples;Min_cycle;Max_cycle;Signal;HPM_P1;HPM_P2
2021/12/19 00:00:11;;;;;;;;;;;2.40;83.30;;;;;;5038406;28;19952;-79
2021/12/19 00:10:50;;;;;;;;;;;2.30;83.40;;;;;;5034147;28;19916;-79
2021/12/19 00:13:16;;;;;;;;;;;2.30;83.30;;;;;;5038112;28;19905;-79
2021/12/19 00:15:42;;;;;;;;;;;2.20;83.30;;;;;;5038073;28;19905;-79
2021/12/19 00:18:07;;;;;;;;;;;2.20;83.30;;;;;;5038226;28;19992;-79
2021/12/19 00:20:33;;;;;;;;;;;2.20;83.30;;;;;;5037891;28;19935;-79
2021/12/19 00:22:59;;;;;;;;;;;2.20;83.90;;;;;;5037977;28;20271;-79
2021/12/19 00:25:24;;;;;;;;;;;2.20;83.40;;;;;;5037102;28;20404;-79
2021/12/19 00:27:50;;;;;;;;;;;2.10;83.50;;;;;;5026273;28;19917;-79
2021/12/19 00:30:15;;;;;;;;;;;2.10;83.50;;;;;;5038086;28;19912;-79
2021/12/19 00:32:41;;;;;;;;;;;2.10;83.50;;;;;;5036490;28;20268;-80
2021/12/19 00:35:07;;;;;;;;;;;2.10;83.60;;;;;;5037727;28;19905;-79
2021/12/19 00:37:33;;;;;;;;;;;2.00;83.60;;;;;;5037864;28;20035;-79
2021/12/19 00:39:58;;;;;;;;;;;2.00;83.60;;;;;;5036132;28;19909;-79
2021/12/19 00:42:35;;;;;;;;;;;2.00;83.50;;;;;;5037693;28;19963;-79
2021/12/19 00:45:05;;;;;;;;;;;2.00;83.50;;;;;;5037755;28;19912;-79
2021/12/19 00:47:31;;;;;;;;;;;2.00;83.50;;;;;;5036592;28;19966;-79
2021/12/19 00:49:56;;;;;;;;;;;2.00;83.50;;;;;;5037611;28;19992;-79
2021/12/19 00:52:22;;;;;;;;;;;1.90;83.40;;;;;;5037333;28;19905;-80
2021/12/19 00:54:48;;;;;;;;;;;1.90;83.40;;;;;;5036084;28;20364;-79
2021/12/19 00:57:13;;;;;;;;;;;1.90;83.50;;;;;;5037762;28;19909;-80
2021/12/19 00:59:39;;;;;;;;;;;1.90;83.40;;;;;;5037478;28;19959;-79
2021/12/19 01:02:05;;;;;;;;;;;1.80;83.40;;;;;;5036113;28;19911;-79
2021/12/19 01:04:30;;;;;;;;;;;1.80;83.50;;;;;;5039641;28;20431;-79
2021/12/19 01:07:00;;;;;;;;;;;1.80;83.60;;;;;;5041518;28;19905;-79
2021/12/19 01:09:26;;;;;;;;;;;1.80;83.60;;;;;;5040897;28;19905;-79
2021/12/19 01:11:51;;;;;;;;;;;1.80;83.70;;;;;;5041431;28;19905;-79
2021/12/19 01:14:17;;;;;;;;;;;1.80;83.70;;;;;;5041135;28;19906;-79
2021/12/19 01:16:43;;;;;;;;;;;1.80;83.70;;;;;;5041445;28;19909;-79
2021/12/19 01:19:08;;;;;;;;;;;1.70;83.60;;;;;;5041142;28;19999;-79
2021/12/19 01:21:34;;;;;;;;;;;1.70;83.60;;;;;;5040188;28;20339;-79
2021/12/19 01:24:00;;;;;;;;;;;1.70;83.60;;;;;;5040733;28;19912;-79
2021/12/19 01:26:25;;;;;;;;;;;1.70;84.20;;;;;;5032196;28;20000;-79
2021/12/19 01:28:51;;;;;;;;;;;1.60;83.70;;;;;;5037630;28;19988;-80
2021/12/19 01:31:17;;;;;;;;;;;1.60;83.60;;;;;;5041160;28;19905;-79
2021/12/19 01:33:42;;;;;;;;;;;1.60;83.60;;;;;;5040862;28;19912;-79
2021/12/19 01:36:08;;;;;;;;;;;1.60;83.60;;;;;;5041162;28;19956;-79
2021/12/19 01:38:34;;;;;;;;;;;1.60;83.70;;;;;;5040524;28;19978;-79
2021/12/19 01:41:00;;;;;;;;;;;1.60;83.80;;;;;;5040718;28;20019;-79
2021/12/19 01:43:26;;;;;;;;;;;1.60;83.70;;;;;;5039424;28;19905;-79
2021/12/19 01:45:53;;;;;;;;;;;1.60;83.80;;;;;;5041132;28;19939;-79
2021/12/19 01:48:19;;;;;;;;;;;1.50;83.90;;;;;;5040568;28;19905;-79
2021/12/19 01:50:45;;;;;;;;;;;1.50;84.00;;;;;;5041113;28;20284;-80
2021/12/19 01:53:11;;;;;;;;;;;1.50;84.00;;;;;;5040443;28;19912;-79
2021/12/19 01:55:37;;;;;;;;;;;1.50;84.00;;;;;;5040877;28;19904;-79
2021/12/19 01:58:03;;;;;;;;;;;1.50;83.90;;;;;;5040420;28;20506;-80
2021/12/19 02:00:30;;;;;;;;;;;1.40;83.80;;;;;;5040773;28;19905;-81
2021/12/19 02:02:56;;;;;;;;;;;1.40;83.80;;;;;;5040195;28;19905;-80
2021/12/19 02:05:24;;;;;;;;;;;1.40;83.90;;;;;;5040495;28;19905;-81
2021/12/19 02:07:50;;;;;;;;;;;1.40;83.90;;;;;;5039929;28;19905;-82
2021/12/19 02:10:19;;;;;;;;;;;1.40;84.10;;;;;;5040494;28;19912;-81
2021/12/19 02:12:47;;;;;;;;;;;1.30;84.10;;;;;;5040052;28;19955;-80
2021/12/19 02:15:16;;;;;;;;;;;1.40;85.00;;;;;;5039990;28;19905;-81
2021/12/19 02:17:42;;;;;;;;;;;1.30;84.50;;;;;;5039939;28;20252;-79
2021/12/19 02:20:09;;;;;;;;;;;1.30;84.50;;;;;;5040307;28;19909;-79
2021/12/19 02:22:35;;;;;;;;;;;1.30;84.50;;;;;;5026931;28;19909;-79
2021/12/19 02:25:01;;;;;;;;;;;1.30;84.50;;;;;;5040083;28;20383;-79
2021/12/19 02:27:28;;;;;;;;;;;1.30;84.50;;;;;;5025829;28;20771;-79
2021/12/19 02:29:55;;;;;;;;;;;1.30;84.50;;;;;;5040180;28;20008;-79
2021/12/19 02:32:21;;;;;;;;;;;1.20;84.40;;;;;;5038309;28;20390;-79
2021/12/19 02:34:49;;;;;;;;;;;1.20;84.40;;;;;;5040025;28;19909;-79
2021/12/19 02:37:49;;;;;;;;;;;1.20;84.30;;;;;;5038251;28;19909;-79
2021/12/19 02:48:13;;;;;;;;;;;1.10;84.50;;;;;;5039451;28;19912;-79
2021/12/19 02:50:51;;;;;;;;;;;1.10;84.50;;;;;;5039773;28;20291;-79
2021/12/19 02:53:37;;;;;;;;;;;1.00;84.50;;;;;;5038088;28;19937;-79
2021/12/19 02:56:04;;;;;;;;;;;1.00;84.50;;;;;;5038885;28;20390;-79
2021/12/19 02:58:30;;;;;;;;;;;1.00;84.50;;;;;;5039485;28;19916;-79
2021/12/19 03:00:58;;;;;;;;;;;1.00;84.60;;;;;;5039284;28;20364;-79
2021/12/19 03:03:24;;;;;;;;;;;1.00;84.60;;;;;;5039297;28;19912;-79
2021/12/19 03:05:50;;;;;;;;;;;1.00;84.60;;;;;;5039333;28;20367;-79
2021/12/19 03:08:16;;;;;;;;;;;1.00;84.60;;;;;;5037924;28;19905;-79
2021/12/19 03:18:48;;;;;;;;;;;0.90;84.60;;;;;;5039235;28;19912;-79
2021/12/19 03:21:16;;;;;;;;;;;0.90;84.60;;;;;;5039269;28;19905;-79
2021/12/19 03:23:42;;;;;;;;;;;0.90;84.50;;;;;;5038802;28;19905;-79
2021/12/19 03:26:07;;;;;;;;;;;0.90;84.50;;;;;;5030081;28;19906;-79
2021/12/19 03:28:33;;;;;;;;;;;0.90;84.50;;;;;;5031713;28;19912;-79
2021/12/19 03:30:59;;;;;;;;;;;0.90;84.60;;;;;;5037809;28;19905;-79
2021/12/19 03:33:25;;;;;;;;;;;0.80;84.60;;;;;;5038640;28;19932;-79
2021/12/19 03:35:51;;;;;;;;;;;0.80;84.70;;;;;;5038648;28;20525;-79
2021/12/19 03:38:17;;;;;;;;;;;0.80;84.80;;;;;;5038509;28;19928;-79
2021/12/19 03:40:51;;;;;;;;;;;0.80;85.00;;;;;;5038471;28;19917;-80
2021/12/19 03:43:17;;;;;;;;;;;0.80;85.00;;;;;;5038465;28;19912;-79
2021/12/19 03:45:44;;;;;;;;;;;0.80;85.00;;;;;;5039043;28;19912;-80
2021/12/19 03:48:12;;;;;;;;;;;0.70;84.80;;;;;;5038320;28;19911;-80
2021/12/19 03:50:43;;;;;;;;;;;0.70;84.90;;;;;;5038555;28;19909;-80
2021/12/19 03:53:10;;;;;;;;;;;0.70;84.80;;;;;;5038212;28;20392;-80
2021/12/19 03:55:35;;;;;;;;;;;0.70;84.80;;;;;;5036904;28;20382;-79
2021/12/19 03:58:03;;;;;;;;;;;0.70;84.90;;;;;;5038209;28;20003;-79
2021/12/19 04:00:30;;;;;;;;;;;0.70;85.00;;;;;;5038395;28;19905;-79
2021/12/19 04:02:58;;;;;;;;;;;0.60;84.90;;;;;;5037963;28;19912;-79
2021/12/19 04:05:24;;;;;;;;;;;0.60;85.00;;;;;;5038206;28;20008;-79
2021/12/19 04:07:50;;;;;;;;;;;0.60;85.00;;;;;;5037738;28;20399;-79
2021/12/19 04:10:16;;;;;;;;;;;0.60;85.00;;;;;;5038257;28;19905;-79
2021/12/19 04:12:43;;;;;;;;;;;0.60;85.00;;;;;;5037837;28;20825;-79
2021/12/19 04:15:09;;;;;;;;;;;0.60;85.10;;;;;;5038145;28;20479;-80
2021/12/19 04:17:34;;;;;;;;;;;0.50;85.10;;;;;;5037778;28;19909;-79
2021/12/19 04:20:00;;;;;;;;;;;0.50;85.00;;;;;;5038244;28;19917;-79
2021/12/19 04:22:25;;;;;;;;;;;0.50;84.90;;;;;;5037685;28;19975;-79
2021/12/19 04:24:51;;;;;;;;;;;0.50;84.90;;;;;;5037999;28;19905;-79
2021/12/19 04:27:18;;;;;;;;;;;0.50;84.90;;;;;;5025147;28;20387;-79
2021/12/19 04:29:44;;;;;;;;;;;0.50;85.00;;;;;;5038076;28;20265;-79
2021/12/19 04:32:11;;;;;;;;;;;0.50;85.10;;;;;;5037596;28;19941;-79
2021/12/19 04:34:37;;;;;;;;;;;0.50;85.10;;;;;;5038050;28;20360;-79
2021/12/19 04:37:12;;;;;;;;;;;0.50;85.10;;;;;;5037377;28;20027;-79
2021/12/19 04:39:54;;;;;;;;;;;0.40;85.10;;;;;;5037880;28;20368;-79
2021/12/19 04:58:33;;;;;;;;;;;0.40;85.40;;;;;;5037409;28;19916;-79
2021/12/19 05:14:12;;;;;;;;;;;0.30;85.40;;;;;;5037529;28;19912;-79
2021/12/19 05:16:42;;;;;;;;;;;0.30;85.40;;;;;;5036236;28;19909;-79
2021/12/19 05:22:00;;;;;;;;;;;0.30;85.40;;;;;;5036865;28;19905;-79
2021/12/19 05:26:57;;;;;;;;;;;0.30;85.50;;;;;;5024673;28;19952;-79
2021/12/19 05:29:23;;;;;;;;;;;0.30;85.50;;;;;;5037373;28;19905;-79
2021/12/19 05:31:49;;;;;;;;;;;0.30;85.50;;;;;;5037090;28;20364;-79
2021/12/19 05:34:14;;;;;;;;;;;0.30;85.30;;;;;;5037284;28;20292;-79
2021/12/19 05:47:25;;;;;;;;;;;0.20;85.20;;;;;;5037033;28;19906;-79
2021/12/19 05:49:50;;;;;;;;;;;0.20;85.40;;;;;;5038007;28;20287;-79
2021/12/19 05:52:16;;;;;;;;;;;0.20;86.30;;;;;;5040685;28;20375;-79
2021/12/19 05:54:42;;;;;;;;;;;0.30;87.00;;;;;;5040422;28;19905;-79
2021/12/19 05:57:09;;;;;;;;;;;0.30;88.50;;;;;;5039197;28;19994;-79
2021/12/19 05:59:35;;;;;;;;;;;0.40;89.40;;;;;;5039140;28;19905;-79
2021/12/19 06:02:01;;;;;;;;;;;0.50;89.60;;;;;;5040519;28;20406;-79
2021/12/19 06:04:26;;;;;;;;;;;0.60;89.30;;;;;;5040355;28;19905;-79
2021/12/19 06:06:52;;;;;;;;;;;0.60;89.30;;;;;;5040514;28;19956;-79
2021/12/19 06:09:18;;;;;;;;;;;0.70;90.10;;;;;;5038563;28;19905;-79
2021/12/19 06:11:43;;;;;;;;;;;0.80;90.30;;;;;;5040543;28;19952;-80
2021/12/19 06:14:09;;;;;;;;;;;0.90;90.70;;;;;;5039006;28;19943;-79
2021/12/19 06:16:35;;;;;;;;;;;1.00;91.50;;;;;;5040431;28;19916;-79
2021/12/19 06:19:00;;;;;;;;;;;1.30;92.20;;;;;;5038766;28;19911;-79
2021/12/19 06:21:26;;;;;;;;;;;1.50;92.60;;;;;;5040509;28;19912;-79
2021/12/19 06:23:52;;;;;;;;;;;1.60;92.80;;;;;;5038630;28;19905;-78
2021/12/19 06:26:18;;;;;;;;;;;1.80;92.90;;;;;;5030672;28;19905;-78
2021/12/19 06:28:43;;;;;;;;;;;2.00;93.30;;;;;;5035544;28;19931;-79
2021/12/19 06:31:09;;;;;;;;;;;2.10;93.50;;;;;;5040036;28;19904;-79
2021/12/19 06:33:35;;;;;;;;;;;2.20;93.60;;;;;;5038760;28;19914;-79
2021/12/19 06:36:01;;;;;;;;;;;2.30;93.60;;;;;;5040320;28;19920;-79
2021/12/19 06:38:26;;;;;;;;;;;2.40;93.70;;;;;;5039378;28;20007;-79
2021/12/19 06:40:53;;;;;;;;;;;2.50;93.60;;;;;;5039953;28;20435;-79
2021/12/19 06:43:19;;;;;;;;;;;2.60;93.60;;;;;;5038550;28;20003;-79
2021/12/19 06:45:44;;;;;;;;;;;2.60;93.70;;;;;;5040037;28;19956;-79
2021/12/19 06:48:10;;;;;;;;;;;2.70;93.70;;;;;;5038455;28;19909;-79
2021/12/19 06:50:36;;;;;;;;;;;2.80;93.60;;;;;;5038800;28;19912;-79
2021/12/19 06:53:01;;;;;;;;;;;2.80;93.60;;;;;;5038159;28;19911;-79
2021/12/19 06:55:27;;;;;;;;;;;2.90;93.70;;;;;;5039497;28;20432;-79
2021/12/19 06:57:53;;;;;;;;;;;2.90;93.70;;;;;;5039259;28;20411;-79
2021/12/19 07:00:20;;;;;;;;;;;3.00;93.70;;;;;;5039554;28;19988;-79
2021/12/19 07:02:46;;;;;;;;;;;3.00;93.60;;;;;;5038104;28;19928;-79
2021/12/19 07:05:12;;;;;;;;;;;3.10;93.50;;;;;;5038014;28;20383;-79
2021/12/19 07:07:37;;;;;;;;;;;3.10;93.40;;;;;;5039107;28;19905;-79
2021/12/19 07:10:04;;;;;;;;;;;3.10;93.30;;;;;;5039160;28;19913;-79
2021/12/19 07:12:30;;;;;;;;;;;3.20;93.20;;;;;;5038978;28;19905;-78
2021/12/19 07:14:56;;;;;;;;;;;3.20;93.10;;;;;;5039273;28;19927;-78
2021/12/19 07:17:21;;;;;;;;;;;3.20;92.90;;;;;;5039126;28;19913;-78
2021/12/19 07:19:47;;;;;;;;;;;3.30;93.10;;;;;;5039187;28;19909;-79
2021/12/19 07:22:13;;;;;;;;;;;3.30;93.10;;;;;;5037563;28;19905;-78
2021/12/19 07:24:38;;;;;;;;;;;3.30;93.10;;;;;;5038870;28;19972;-79
2021/12/19 07:27:04;;;;;;;;;;;3.40;93.00;;;;;;5024879;28;19906;-79
2021/12/19 07:29:31;;;;;;;;;;;3.40;92.90;;;;;;5039236;28;19909;-79
2021/12/19 07:31:57;;;;;;;;;;;3.40;92.90;;;;;;5038643;28;19952;-79
2021/12/19 07:34:29;;;;;;;;;;;3.50;92.90;;;;;;5038966;28;20003;-79
2021/12/19 07:36:55;;;;;;;;;;;3.50;92.90;;;;;;5038633;28;19909;-78
2021/12/19 07:41:49;;;;;;;;;;;3.60;93.00;;;;;;5038390;28;19923;-78
2021/12/19 07:44:15;;;;;;;;;;;3.60;93.20;;;;;;5038584;28;19905;-79
2021/12/19 07:46:41;;;;;;;;;;;3.60;93.20;;;;;;5038392;28;19905;-78
2021/12/19 07:49:06;;;;;;;;;;;3.70;93.20;;;;;;5038609;28;19905;-78
2021/12/19 07:51:32;;;;;;;;;;;3.70;93.30;;;;;;5037033;28;19912;-78
2021/12/19 07:53:58;;;;;;;;;;;3.70;93.30;;;;;;5036958;28;19905;-78
2021/12/19 07:56:23;;;;;;;;;;;3.80;93.40;;;;;;5038232;28;19916;-78
2021/12/19 07:58:49;;;;;;;;;;;3.80;93.50;;;;;;5038514;28;20367;-78
2021/12/19 08:01:14;;;;;;;;;;;3.80;93.50;;;;;;5038087;28;19952;-78
2021/12/19 08:03:40;;;;;;;;;;;3.90;93.60;;;;;;5038436;28;19916;-78
2021/12/19 08:06:06;;;;;;;;;;;3.90;93.60;;;;;;5038381;28;19905;-78
2021/12/19 08:08:33;;;;;;;;;;;4.00;93.60;;;;;;5037970;28;19909;-78
2021/12/19 08:13:43;;;;;;;;;;;4.00;93.50;;;;;;5037800;28;19911;-78
2021/12/19 08:16:08;;;;;;;;;;;4.10;93.60;;;;;;5037072;28;20003;-78
2021/12/19 08:18:34;;;;;;;;;;;4.10;93.50;;;;;;5038305;28;20375;-78
2021/12/19 08:21:00;;;;;;;;;;;4.10;93.40;;;;;;5038061;28;19908;-78
2021/12/19 08:23:26;;;;;;;;;;;4.10;93.60;;;;;;5036505;28;19905;-79
2021/12/19 08:25:51;;;;;;;;;;;4.20;93.50;;;;;;5032255;28;20300;-78
2021/12/19 08:28:17;;;;;;;;;;;4.20;93.50;;;;;;5030182;28;20019;-78
2021/12/19 08:30:43;;;;;;;;;;;4.20;93.40;;;;;;5036430;28;19905;-78
2021/12/19 08:33:08;;;;;;;;;;;4.30;93.50;;;;;;5036512;28;19960;-78
2021/12/19 08:35:34;;;;;;;;;;;4.30;93.30;;;;;;5037691;28;20368;-78
2021/12/19 08:38:00;;;;;;;;;;;4.30;93.20;;;;;;5036556;28;19913;-78
2021/12/19 08:40:27;;;;;;;;;;;4.40;93.30;;;;;;5037435;28;19926;-78
2021/12/19 08:42:53;;;;;;;;;;;4.40;93.40;;;;;;5037714;28;19905;-78
2021/12/19 08:45:19;;;;;;;;;;;4.40;93.30;;;;;;5036184;28;20285;-78
2021/12/19 08:47:44;;;;;;;;;;;4.40;93.20;;;;;;5027522;28;19905;-78
2021/12/19 08:50:11;;;;;;;;;;;4.50;93.30;;;;;;5036576;28;19971;-78
2021/12/19 08:52:36;;;;;;;;;;;4.50;93.40;;;;;;5036096;28;19909;-78
2021/12/19 08:55:04;;;;;;;;;;;4.50;93.30;;;;;;5036033;28;19905;-78
2021/12/19 08:57:29;;;;;;;;;;;4.60;93.40;;;;;;5037768;28;20363;-78
2021/12/19 08:59:55;;;;;;;;;;;4.60;93.30;;;;;;5036262;28;20016;-78
2021/12/19 09:02:21;;;;;;;;;;;4.70;93.40;;;;;;5037581;28;20256;-78
2021/12/19 09:04:46;;;;;;;;;;;4.70;93.40;;;;;;5037389;28;20360;-78
2021/12/19 09:07:14;;;;;;;;;;;4.70;93.40;;;;;;5037248;28;19956;-78
2021/12/19 09:09:39;;;;;;;;;;;4.70;93.30;;;;;;5037172;28;20276;-78
2021/12/19 09:12:06;;;;;;;;;;;4.80;93.40;;;;;;5037443;28;19905;-78
2021/12/19 09:14:31;;;;;;;;;;;4.80;93.50;;;;;;5037262;28;20434;-78
2021/12/19 09:16:57;;;;;;;;;;;4.80;93.50;;;;;;5037519;28;19909;-78
2021/12/19 09:19:25;;;;;;;;;;;4.90;93.60;;;;;;5037408;28;20364;-78
2021/12/19 09:21:51;;;;;;;;;;;4.90;93.50;;;;;;5036147;28;19948;-78
2021/12/19 09:24:16;;;;;;;;;;;5.00;93.50;;;;;;5037230;28;19905;-78
2021/12/19 09:26:42;;;;;;;;;;;5.00;93.40;;;;;;5029780;28;20416;-78
2021/12/19 09:29:08;;;;;;;;;;;5.00;93.40;;;;;;5040012;28;19905;-79
2021/12/19 09:31:33;;;;;;;;;;;5.10;93.40;;;;;;5040193;28;20422;-78
2021/12/19 09:33:59;;;;;;;;;;;5.10;93.40;;;;;;5040879;28;19944;-78
2021/12/19 09:36:25;;;;;;;;;;;5.20;93.60;;;;;;5041044;28;19932;-78
2021/12/19 09:38:50;;;;;;;;;;;5.20;93.60;;;;;;5040426;28;19917;-78
2021/12/19 09:41:27;;;;;;;;;;;5.20;93.70;;;;;;5039466;28;19917;-78
2021/12/19 09:43:53;;;;;;;;;;;5.30;93.70;;;;;;5027968;28;20276;-78
2021/12/19 09:46:21;;;;;;;;;;;5.30;93.70;;;;;;5040896;28;19967;-77
2021/12/19 09:48:48;;;;;;;;;;;5.40;93.60;;;;;;5027877;28;19909;-78
2021/12/19 09:51:14;;;;;;;;;;;5.40;93.80;;;;;;5040704;28;19906;-78
2021/12/19 09:53:40;;;;;;;;;;;5.40;93.70;;;;;;5039410;28;19970;-78
2021/12/19 09:56:07;;;;;;;;;;;5.50;93.80;;;;;;5040668;28;20375;-78
2021/12/19 09:58:35;;;;;;;;;;;5.50;93.80;;;;;;5040620;28;19905;-78
2021/12/19 10:01:03;;;;;;;;;;;5.60;93.80;;;;;;5040430;28;19978;-79
2021/12/19 10:03:28;;;;;;;;;;;5.60;93.80;;;;;;5039470;28;19905;-78
2021/12/19 10:06:12;;;;;;;;;;;5.60;93.90;;;;;;5040420;28;19912;-79
2021/12/19 10:08:39;;;;;;;;;;;5.70;93.90;;;;;;5038810;28;19956;-76
2021/12/19 10:11:13;;;;;;;;;;;5.70;94.10;;;;;;5040299;28;19905;-76
2021/12/19 10:13:39;;;;;;;;;;;5.80;94.10;;;;;;5039228;28;20275;-78
2021/12/19 10:16:24;;;;;;;;;;;5.80;94.10;;;;;;5038798;28;19905;-78
2021/12/19 10:18:50;;;;;;;;;;;5.90;94.10;;;;;;5038818;28;19905;-79
2021/12/19 10:21:18;;;;;;;;;;;5.90;94.00;;;;;;5040476;28;20007;-80
2021/12/19 10:23:44;;;;;;;;;;;5.90;94.00;;;;;;5038640;28;19928;-78
2021/12/19 10:26:10;;;;;;;;;;;6.00;94.10;;;;;;5033393;28;20368;-79
2021/12/19 10:28:51;;;;;;;;;;;6.00;94.10;;;;;;5034673;28;19955;-80
2021/12/19 10:31:17;;;;;;;;;;;6.10;94.10;;;;;;5040014;28;20008;-79
2021/12/19 10:33:42;;;;;;;;;;;6.10;94.00;;;;;;5038664;28;19952;-80
2021/12/19 10:36:09;;;;;;;;;;;6.20;94.10;;;;;;5039667;28;19916;-79
2021/12/19 10:38:41;;;;;;;;;;;6.20;94.30;;;;;;5039489;28;19912;-79
2021/12/19 10:41:07;;;;;;;;;;;6.20;94.00;;;;;;5038604;28;20002;-79
2021/12/19 10:43:33;;;;;;;;;;;6.20;93.90;;;;;;5039662;28;19909;-79
2021/12/19 10:46:03;;;;;;;;;;;6.30;93.90;;;;;;5040197;28;19908;-79
2021/12/19 10:48:31;;;;;;;;;;;6.30;94.00;;;;;;5039368;28;20035;-79
2021/12/19 10:51:16;;;;;;;;;;;6.40;94.00;;;;;;5039711;28;19940;-79
2021/12/19 10:53:49;;;;;;;;;;;6.40;94.20;;;;;;5025944;28;19905;-79
2021/12/19 10:56:16;;;;;;;;;;;6.40;93.80;;;;;;5039390;28;19909;-79
2021/12/19 10:58:48;;;;;;;;;;;6.40;93.70;;;;;;5039445;28;19905;-79
2021/12/19 11:01:17;;;;;;;;;;;6.50;93.70;;;;;;5039157;28;20008;-79
2021/12/19 11:03:48;;;;;;;;;;;6.50;93.60;;;;;;5039496;28;19912;-79
2021/12/19 11:06:19;;;;;;;;;;;6.50;93.60;;;;;;5039163;28;19955;-79
2021/12/19 11:08:45;;;;;;;;;;;6.60;93.80;;;;;;5038838;28;19905;-79
2021/12/19 11:11:11;;;;;;;;;;;6.60;93.70;;;;;;5038998;28;19909;-79
2021/12/19 11:13:37;;;;;;;;;;;6.70;93.60;;;;;;5039295;28;20016;-79
2021/12/19 11:16:03;;;;;;;;;;;6.70;93.50;;;;;;5038871;28;19927;-79
2021/12/19 11:18:28;;;;;;;;;;;6.70;93.40;;;;;;5037793;28;20288;-79
2021/12/19 11:20:54;;;;;;;;;;;6.80;93.50;;;;;;5038987;28;20280;-79
2021/12/19 11:23:19;;;;;;;;;;;6.80;93.50;;;;;;5038780;28;20007;-79
2021/12/19 11:25:45;;;;;;;;;;;6.80;93.50;;;;;;5035103;28;19906;-79
2021/12/19 11:28:11;;;;;;;;;;;6.80;93.40;;;;;;5030330;28;19912;-79
2021/12/19 11:30:37;;;;;;;;;;;6.90;93.40;;;;;;5038662;28;20399;-79
2021/12/19 11:33:03;;;;;;;;;;;6.90;93.40;;;;;;5037726;28;19905;-79
2021/12/19 11:35:31;;;;;;;;;;;6.90;93.40;;;;;;5038597;28;19996;-79
2021/12/19 11:37:59;;;;;;;;;;;6.90;93.40;;;;;;5038547;28;19912;-79
2021/12/19 11:40:30;;;;;;;;;;;7.00;93.30;;;;;;5038272;28;19971;-79
2021/12/19 11:43:10;;;;;;;;;;;7.00;93.40;;;;;;5038710;28;20031;-78
2021/12/19 11:45:40;;;;;;;;;;;7.00;93.40;;;;;;5026739;28;19912;-78
2021/12/19 11:48:24;;;;;;;;;;;7.00;93.30;;;;;;5037641;28;19909;-78
2021/12/19 11:50:58;;;;;;;;;;;7.10;93.50;;;;;;5038440;28;19996;-79
2021/12/19 11:53:27;;;;;;;;;;;7.10;93.30;;;;;;5036627;28;19905;-77
2021/12/19 11:55:54;;;;;;;;;;;7.10;93.20;;;;;;5038298;28;19905;-78
2021/12/19 11:58:24;;;;;;;;;;;7.10;93.30;;;;;;5038530;28;20349;-79
2021/12/19 12:00:53;;;;;;;;;;;7.10;93.10;;;;;;5038159;28;20435;-79
2021/12/19 12:03:21;;;;;;;;;;;7.20;93.10;;;;;;5037173;28;19905;-78
2021/12/19 12:05:47;;;;;;;;;;;7.20;93.10;;;;;;5038105;28;20352;-79
2021/12/19 12:08:23;;;;;;;;;;;7.20;93.00;;;;;;5038005;28;19928;-79
2021/12/19 12:10:52;;;;;;;;;;;7.20;93.00;;;;;;5037913;28;19909;-79
2021/12/19 12:13:21;;;;;;;;;;;7.30;93.00;;;;;;5038106;28;19912;-78
2021/12/19 12:15:50;;;;;;;;;;;7.30;93.00;;;;;;5036627;28;19927;-78
2021/12/19 12:18:29;;;;;;;;;;;7.30;92.90;;;;;;5037016;28;19932;-74
2021/12/19 12:20:54;;;;;;;;;;;7.30;92.90;;;;;;5025290;28;19905;-76
2021/12/19 12:23:25;;;;;;;;;;;7.40;92.80;;;;;;5037724;28;20433;-76
2021/12/19 12:25:50;;;;;;;;;;;7.40;92.70;;;;;;5035801;28;19917;-81
2021/12/19 12:28:17;;;;;;;;;;;7.40;92.70;;;;;;5038337;28;20376;-85
2021/12/19 12:30:48;;;;;;;;;;;7.40;92.60;;;;;;5037964;28;19976;-76
2021/12/19 12:33:18;;;;;;;;;;;7.50;92.60;;;;;;5037759;28;19905;-79
2021/12/19 12:35:46;;;;;;;;;;;7.50;92.50;;;;;;5025128;28;19909;-77
2021/12/19 12:38:12;;;;;;;;;;;7.60;92.50;;;;;;5037613;28;19920;-74
2021/12/19 12:43:26;;;;;;;;;;;7.60;92.40;;;;;;5037619;28;19905;-77
2021/12/19 12:45:55;;;;;;;;;;;7.70;92.40;;;;;;5031149;28;19909;-77
2021/12/19 12:48:39;;;;;;;;;;;7.70;92.40;;;;;;5026548;28;19931;-77
2021/12/19 12:51:10;;;;;;;;;;;7.70;92.30;;;;;;5025364;28;19910;-78
2021/12/19 12:53:47;;;;;;;;;;;7.70;92.20;;;;;;5035600;28;20394;-78
2021/12/19 12:56:16;;;;;;;;;;;7.70;92.20;;;;;;5035457;28;19980;-79
2021/12/19 12:58:43;;;;;;;;;;;7.80;92.10;;;;;;5038520;28;19961;-78
2021/12/19 13:01:16;;;;;;;;;;;7.70;92.00;;;;;;5041352;28;20454;-78
2021/12/19 13:04:08;;;;;;;;;;;7.80;92.00;;;;;;5041606;28;19912;-78
2021/12/19 13:06:34;;;;;;;;;;;7.80;91.80;;;;;;5040130;28;19905;-79
2021/12/19 13:09:18;;;;;;;;;;;7.80;91.80;;;;;;5039937;28;19996;-78
2021/12/19 13:11:45;;;;;;;;;;;7.80;91.70;;;;;;5041463;28;19905;-78
2021/12/19 13:14:18;;;;;;;;;;;7.80;91.60;;;;;;5041330;28;19909;-79
2021/12/19 13:16:48;;;;;;;;;;;7.80;91.60;;;;;;5039959;28;19909;-79
2021/12/19 13:19:32;;;;;;;;;;;7.80;91.50;;;;;;5041104;28;20280;-79
2021/12/19 13:21:58;;;;;;;;;;;7.80;91.60;;;;;;5040581;28;20315;-79
2021/12/19 13:24:24;;;;;;;;;;;7.90;91.60;;;;;;5041451;28;19905;-79
2021/12/19 13:27:10;;;;;;;;;;;7.90;91.70;;;;;;5028398;28;19905;-79
2021/12/19 13:29:37;;;;;;;;;;;8.00;91.60;;;;;;5030652;28;19905;-78
2021/12/19 13:32:23;;;;;;;;;;;8.00;91.50;;;;;;5040876;28;19913;-78
2021/12/19 13:34:49;;;;;;;;;;;8.00;91.50;;;;;;5041141;28;19912;-78
2021/12/19 13:37:15;;;;;;;;;;;8.00;91.40;;;;;;5040492;28;20003;-78
2021/12/19 13:39:42;;;;;;;;;;;7.90;91.30;;;;;;5040879;28;19912;-78
2021/12/19 13:42:09;;;;;;;;;;;8.00;91.40;;;;;;5040651;28;19964;-78
2021/12/19 13:44:35;;;;;;;;;;;8.00;91.40;;;;;;5040964;28;19905;-79
2021/12/19 13:47:11;;;;;;;;;;;8.00;91.40;;;;;;5040707;28;19935;-78
2021/12/19 13:49:37;;;;;;;;;;;8.00;91.30;;;;;;5040779;28;19912;-78
2021/12/19 13:52:03;;;;;;;;;;;8.00;91.30;;;;;;5040585;28;20431;-79
2021/12/19 13:54:29;;;;;;;;;;;8.10;91.30;;;;;;5040830;28;19905;-79
2021/12/19 13:56:54;;;;;;;;;;;8.00;91.20;;;;;;5040658;28;20300;-79
2021/12/19 13:59:21;;;;;;;;;;;8.00;91.20;;;;;;5040539;28;19944;-79
2021/12/19 14:01:47;;;;;;;;;;;8.00;91.10;;;;;;5039643;28;19995;-78
2021/12/19 14:04:17;;;;;;;;;;;8.00;91.10;;;;;;5040387;28;19909;-78
2021/12/19 14:06:46;;;;;;;;;;;8.00;91.00;;;;;;5040249;28;20000;-78
2021/12/19 14:09:16;;;;;;;;;;;8.10;91.00;;;;;;5040101;28;19912;-78
2021/12/19 14:11:44;;;;;;;;;;;8.10;91.00;;;;;;5039587;28;19905;-78
2021/12/19 14:14:23;;;;;;;;;;;8.10;90.90;;;;;;5040146;28;19905;-78
2021/12/19 14:16:49;;;;;;;;;;;8.00;90.90;;;;;;5040367;28;20000;-78
2021/12/19 14:19:22;;;;;;;;;;;8.10;90.90;;;;;;5040030;28;19948;-78
2021/12/19 14:21:49;;;;;;;;;;;8.10;90.80;;;;;;5039818;28;20012;-78
2021/12/19 14:24:16;;;;;;;;;;;8.00;90.80;;;;;;5040199;28;19909;-78
2021/12/19 14:26:43;;;;;;;;;;;8.00;90.80;;;;;;5028589;28;19906;-78
2021/12/19 14:29:19;;;;;;;;;;;8.00;90.70;;;;;;5038865;28;19912;-78
2021/12/19 14:31:49;;;;;;;;;;;8.00;90.70;;;;;;5039835;28;19904;-78
2021/12/19 14:34:21;;;;;;;;;;;8.00;90.70;;;;;;5040107;28;19927;-78
2021/12/19 14:36:47;;;;;;;;;;;8.00;90.60;;;;;;5039465;28;20275;-78
2021/12/19 14:39:15;;;;;;;;;;;7.90;90.50;;;;;;5039857;28;19912;-78
2021/12/19 14:41:42;;;;;;;;;;;8.00;90.50;;;;;;5039824;28;20030;-78
2021/12/19 14:44:23;;;;;;;;;;;8.00;90.50;;;;;;5039784;28;19905;-78
2021/12/19 14:46:49;;;;;;;;;;;8.00;90.70;;;;;;5039557;28;19905;-78
2021/12/19 14:49:16;;;;;;;;;;;8.00;90.50;;;;;;5038365;28;19951;-78
2021/12/19 14:51:41;;;;;;;;;;;7.90;90.40;;;;;;5039295;28;19959;-78
2021/12/19 14:54:08;;;;;;;;;;;8.00;90.40;;;;;;5039560;28;19905;-79
2021/12/19 14:56:34;;;;;;;;;;;7.90;90.40;;;;;;5038325;28;19909;-78
2021/12/19 14:59:02;;;;;;;;;;;7.90;90.40;;;;;;5039646;28;19905;-78
2021/12/19 15:01:31;;;;;;;;;;;7.90;90.30;;;;;;5039197;28;19905;-78
2021/12/19 15:04:02;;;;;;;;;;;7.90;90.30;;;;;;5039610;28;19912;-78
2021/12/19 15:06:31;;;;;;;;;;;7.90;90.20;;;;;;5039226;28;20003;-78
2021/12/19 15:08:57;;;;;;;;;;;7.90;90.20;;;;;;5039023;28;19928;-78
2021/12/19 15:11:23;;;;;;;;;;;7.90;90.10;;;;;;5039341;28;19909;-78
2021/12/19 15:13:49;;;;;;;;;;;7.80;90.10;;;;;;5039166;28;19951;-78
2021/12/19 15:16:15;;;;;;;;;;;7.80;90.10;;;;;;5039247;28;20265;-78
2021/12/19 15:18:44;;;;;;;;;;;7.80;90.10;;;;;;5039069;28;19956;-78
2021/12/19 15:21:10;;;;;;;;;;;7.80;90.10;;;;;;5039205;28;19911;-78
2021/12/19 15:23:37;;;;;;;;;;;7.80;90.10;;;;;;5038940;28;20353;-78
2021/12/19 15:26:03;;;;;;;;;;;7.80;90.00;;;;;;5032908;28;19905;-78
2021/12/19 15:28:29;;;;;;;;;;;7.70;90.00;;;;;;5032422;28;20291;-78
2021/12/19 15:30:55;;;;;;;;;;;7.70;90.10;;;;;;5039083;28;19905;-78
2021/12/19 15:33:22;;;;;;;;;;;7.70;90.00;;;;;;5038655;28;19909;-78
2021/12/19 15:35:48;;;;;;;;;;;7.70;90.00;;;;;;5038866;28;19916;-79
2021/12/19 15:38:14;;;;;;;;;;;7.70;90.00;;;;;;5038330;28;19909;-78
2021/12/19 15:40:40;;;;;;;;;;;7.60;90.00;;;;;;5038629;28;19924;-78
2021/12/19 15:43:06;;;;;;;;;;;7.60;89.90;;;;;;5038537;28;19905;-78
2021/12/19 15:45:32;;;;;;;;;;;7.60;89.70;;;;;;5038940;28;19932;-78
2021/12/19 15:47:58;;;;;;;;;;;7.60;89.70;;;;;;5037067;28;19905;-78
2021/12/19 15:50:24;;;;;;;;;;;7.60;89.70;;;;;;5038835;28;20375;-79